Aviation Digital Data Service (ADDS)

Output produced by METARs form (1522 UTC 23 January 2019)
found at http://www.aviationweather.gov/metar/data/
 
METAR text: FGBT 231400Z 23011KT 9999 FEW010 31/27 Q1009
Conditions at: FGBT (BATA (RIO MUNI) , GQ) observed 1400 UTC 23 January 2019
Temperature: 31.0°C (88°F)
Dewpoint: 27.0°C (81°F) [RH = 79%]
Pressure (altimeter): 29.79 inches Hg (1009.0 mb)
Winds: from the SW (230 degrees) at 13 MPH (11 knots; 5.7 m/s)
Visibility: 6 or more miles (10+ km)
Ceiling: at least 12,000 feet AGL
Clouds: few clouds at 1000 feet AGL
Weather: no significant weather observed at this time

METAR text: FGBT 231300Z 23009KT 190V250 9999 SCT010 31/27 Q1010
Conditions at: FGBT (BATA (RIO MUNI) , GQ) observed 1300 UTC 23 January 2019
Temperature: 31.0°C (88°F)
Dewpoint: 27.0°C (81°F) [RH = 79%]
Pressure (altimeter): 29.82 inches Hg (1010.0 mb)
Winds: from the SW (230 degrees) at 10 MPH (9 knots; 4.6 m/s)
Visibility: 6 or more miles (10+ km)
Ceiling: at least 12,000 feet AGL
Clouds: scattered clouds at 1000 feet AGL
Weather: no significant weather observed at this time

METAR text: FGBT 231200Z 24008KT 9999 SCT010 32/27 Q1011
Conditions at: FGBT (BATA (RIO MUNI) , GQ) observed 1200 UTC 23 January 2019
Temperature: 32.0°C (90°F)
Dewpoint: 27.0°C (81°F) [RH = 75%]
Pressure (altimeter): 29.85 inches Hg (1011.0 mb)
Winds: from the WSW (240 degrees) at 9 MPH (8 knots; 4.1 m/s)
Visibility: 6 or more miles (10+ km)
Ceiling: at least 12,000 feet AGL
Clouds: scattered clouds at 1000 feet AGL
Weather: no significant weather observed at this time

METAR text: FGBT 231100Z 25006KT 9999 SCT010 31/27 Q1011
Conditions at: FGBT (BATA (RIO MUNI) , GQ) observed 1100 UTC 23 January 2019
Temperature: 31.0°C (88°F)
Dewpoint: 27.0°C (81°F) [RH = 79%]
Pressure (altimeter): 29.85 inches Hg (1011.0 mb)
Winds: from the WSW (250 degrees) at 7 MPH (6 knots; 3.1 m/s)
Visibility: 6 or more miles (10+ km)
Ceiling: at least 12,000 feet AGL
Clouds: scattered clouds at 1000 feet AGL
Weather: no significant weather observed at this time

METAR text: FGBT 231000Z 16003KT 120V240 9999 SCT010 31/26 Q1012
Conditions at: FGBT (BATA (RIO MUNI) , GQ) observed 1000 UTC 23 January 2019
Temperature: 31.0°C (88°F)
Dewpoint: 26.0°C (79°F) [RH = 75%]
Pressure (altimeter): 29.88 inches Hg (1012.0 mb)
Winds: from the SSE (160 degrees) at 3 MPH (3 knots; 1.5 m/s)
Visibility: 6 or more miles (10+ km)
Ceiling: at least 12,000 feet AGL
Clouds: scattered clouds at 1000 feet AGL
Weather: no significant weather observed at this time

METAR text: FGBT 230900Z VRB02KT 9999 FEW010 30/26 Q1013
Conditions at: FGBT (BATA (RIO MUNI) , GQ) observed 0900 UTC 23 January 2019
Temperature: 30.0°C (86°F)
Dewpoint: 26.0°C (79°F) [RH = 79%]
Pressure (altimeter): 29.91 inches Hg (1013.0 mb)
Winds: variable direction winds at 2 MPH (2 knots; 1.0 m/s)
Visibility: 6 or more miles (10+ km)
Ceiling: at least 12,000 feet AGL
Clouds: few clouds at 1000 feet AGL
Weather: no significant weather observed at this time

METAR text: FGBT 230800Z 00000KT 9999 FEW010 29/26 Q1013
Conditions at: FGBT (BATA (RIO MUNI) , GQ) observed 0800 UTC 23 January 2019
Temperature: 29.0°C (84°F)
Dewpoint: 26.0°C (79°F) [RH = 84%]
Pressure (altimeter): 29.91 inches Hg (1013.0 mb)
Winds: calm
Visibility: 6 or more miles (10+ km)
Ceiling: at least 12,000 feet AGL
Clouds: few clouds at 1000 feet AGL
Weather: no significant weather observed at this time

METAR text: FGBT 230700Z 00000KT 9999 FEW010 26/25 Q1012
Conditions at: FGBT (BATA (RIO MUNI) , GQ) observed 0700 UTC 23 January 2019
Temperature: 26.0°C (79°F)
Dewpoint: 25.0°C (77°F) [RH = 94%]
Pressure (altimeter): 29.88 inches Hg (1012.0 mb)
Winds: calm
Visibility: 6 or more miles (10+ km)
Ceiling: at least 12,000 feet AGL
Clouds: few clouds at 1000 feet AGL
Weather: no significant weather observed at this time

METAR text: FGBT 230600Z 12005KT 9999 FEW010 25/25 Q1011
Conditions at: FGBT (BATA (RIO MUNI) , GQ) observed 0600 UTC 23 January 2019
Temperature: 25.0°C (77°F)
Dewpoint: 25.0°C (77°F) [RH = 100%]
Pressure (altimeter): 29.85 inches Hg (1011.0 mb)
Winds: from the ESE (120 degrees) at 6 MPH (5 knots; 2.6 m/s)
Visibility: 6 or more miles (10+ km)
Ceiling: at least 12,000 feet AGL
Clouds: few clouds at 1000 feet AGL
Weather: no significant weather observed at this time

METAR text: FGBT 230500Z 00000KT 9999 SCT010 25/25 Q1011
Conditions at: FGBT (BATA (RIO MUNI) , GQ) observed 0500 UTC 23 January 2019
Temperature: 25.0°C (77°F)
Dewpoint: 25.0°C (77°F) [RH = 100%]
Pressure (altimeter): 29.85 inches Hg (1011.0 mb)
Winds: calm
Visibility: 6 or more miles (10+ km)
Ceiling: at least 12,000 feet AGL
Clouds: scattered clouds at 1000 feet AGL
Weather: no significant weather observed at this time

METAR text: FGBT 230400Z 00000KT 9999 SCT010 25/25 Q1011
Conditions at: FGBT (BATA (RIO MUNI) , GQ) observed 0400 UTC 23 January 2019
Temperature: 25.0°C (77°F)
Dewpoint: 25.0°C (77°F) [RH = 100%]
Pressure (altimeter): 29.85 inches Hg (1011.0 mb)
Winds: calm
Visibility: 6 or more miles (10+ km)
Ceiling: at least 12,000 feet AGL
Clouds: scattered clouds at 1000 feet AGL
Weather: no significant weather observed at this time

METAR text: FGBT 230300Z 00000KT 9999 SCT010 26/26 Q1011
Conditions at: FGBT (BATA (RIO MUNI) , GQ) observed 0300 UTC 23 January 2019
Temperature: 26.0°C (79°F)
Dewpoint: 26.0°C (79°F) [RH = 100%]
Pressure (altimeter): 29.85 inches Hg (1011.0 mb)
Winds: calm
Visibility: 6 or more miles (10+ km)
Ceiling: at least 12,000 feet AGL
Clouds: scattered clouds at 1000 feet AGL
Weather: no significant weather observed at this time

METAR text: FGBT 230200Z 11002KT 9999 SCT010 26/26 Q1011
Conditions at: FGBT (BATA (RIO MUNI) , GQ) observed 0200 UTC 23 January 2019
Temperature: 26.0°C (79°F)
Dewpoint: 26.0°C (79°F) [RH = 100%]
Pressure (altimeter): 29.85 inches Hg (1011.0 mb)
Winds: from the ESE (110 degrees) at 2 MPH (2 knots; 1.0 m/s)
Visibility: 6 or more miles (10+ km)
Ceiling: at least 12,000 feet AGL
Clouds: scattered clouds at 1000 feet AGL
Weather: no significant weather observed at this time

METAR text: FGBT 230100Z 10003KT 9999 SCT010 26/26 Q1011
Conditions at: FGBT (BATA (RIO MUNI) , GQ) observed 0100 UTC 23 January 2019
Temperature: 26.0°C (79°F)
Dewpoint: 26.0°C (79°F) [RH = 100%]
Pressure (altimeter): 29.85 inches Hg (1011.0 mb)
Winds: from the E (100 degrees) at 3 MPH (3 knots; 1.5 m/s)
Visibility: 6 or more miles (10+ km)
Ceiling: at least 12,000 feet AGL
Clouds: scattered clouds at 1000 feet AGL
Weather: no significant weather observed at this time

METAR text: FGBT 230000Z 10003KT 9999 SCT010 26/26 Q1011
Conditions at: FGBT (BATA (RIO MUNI) , GQ) observed 0000 UTC 23 January 2019
Temperature: 26.0°C (79°F)
Dewpoint: 26.0°C (79°F) [RH = 100%]
Pressure (altimeter): 29.85 inches Hg (1011.0 mb)
Winds: from the E (100 degrees) at 3 MPH (3 knots; 1.5 m/s)
Visibility: 6 or more miles (10+ km)
Ceiling: at least 12,000 feet AGL
Clouds: scattered clouds at 1000 feet AGL
Weather: no significant weather observed at this time

METAR text: FGBT 222300Z 00000KT 9999 SCT010 26/26 Q1012
Conditions at: FGBT (BATA (RIO MUNI) , GQ) observed 2300 UTC 22 January 2019
Temperature: 26.0°C (79°F)
Dewpoint: 26.0°C (79°F) [RH = 100%]
Pressure (altimeter): 29.88 inches Hg (1012.0 mb)
Winds: calm
Visibility: 6 or more miles (10+ km)
Ceiling: at least 12,000 feet AGL
Clouds: scattered clouds at 1000 feet AGL
Weather: no significant weather observed at this time

METAR text: FGBT 222100Z 00000KT 9999 SCT010 27/26 Q1012
Conditions at: FGBT (BATA (RIO MUNI) , GQ) observed 2100 UTC 22 January 2019
Temperature: 27.0°C (81°F)
Dewpoint: 26.0°C (79°F) [RH = 94%]
Pressure (altimeter): 29.88 inches Hg (1012.0 mb)
Winds: calm
Visibility: 6 or more miles (10+ km)
Ceiling: at least 12,000 feet AGL
Clouds: scattered clouds at 1000 feet AGL
Weather: no significant weather observed at this time

METAR text: FGBT 222000Z 11003KT 9999 SCT010 27/25 Q1012
Conditions at: FGBT (BATA (RIO MUNI) , GQ) observed 2000 UTC 22 January 2019
Temperature: 27.0°C (81°F)
Dewpoint: 25.0°C (77°F) [RH = 89%]
Pressure (altimeter): 29.88 inches Hg (1012.0 mb)
Winds: from the ESE (110 degrees) at 3 MPH (3 knots; 1.5 m/s)
Visibility: 6 or more miles (10+ km)
Ceiling: at least 12,000 feet AGL
Clouds: scattered clouds at 1000 feet AGL
Weather: no significant weather observed at this time

METAR text: FGBT 221900Z 15005KT 9999 SCT010 28/26 Q1011
Conditions at: FGBT (BATA (RIO MUNI) , GQ) observed 1900 UTC 22 January 2019
Temperature: 28.0°C (82°F)
Dewpoint: 26.0°C (79°F) [RH = 89%]
Pressure (altimeter): 29.85 inches Hg (1011.0 mb)
Winds: from the SSE (150 degrees) at 6 MPH (5 knots; 2.6 m/s)
Visibility: 6 or more miles (10+ km)
Ceiling: at least 12,000 feet AGL
Clouds: scattered clouds at 1000 feet AGL
Weather: no significant weather observed at this time

METAR text: FGBT 221800Z 18007KT 9999 SCT010 29/25 Q1010
Conditions at: FGBT (BATA (RIO MUNI) , GQ) observed 1800 UTC 22 January 2019
Temperature: 29.0°C (84°F)
Dewpoint: 25.0°C (77°F) [RH = 79%]
Pressure (altimeter): 29.82 inches Hg (1010.0 mb)
Winds: from the S (180 degrees) at 8 MPH (7 knots; 3.6 m/s)
Visibility: 6 or more miles (10+ km)
Ceiling: at least 12,000 feet AGL
Clouds: scattered clouds at 1000 feet AGL
Weather: no significant weather observed at this time

METAR text: FGBT 221600Z 20010KT 9999 SCT010 30/26 Q1009
Conditions at: FGBT (BATA (RIO MUNI) , GQ) observed 1600 UTC 22 January 2019
Temperature: 30.0°C (86°F)
Dewpoint: 26.0°C (79°F) [RH = 79%]
Pressure (altimeter): 29.79 inches Hg (1009.0 mb)
Winds: from the SSW (200 degrees) at 12 MPH (10 knots; 5.1 m/s)
Visibility: 6 or more miles (10+ km)
Ceiling: at least 12,000 feet AGL
Clouds: scattered clouds at 1000 feet AGL
Weather: no significant weather observed at this time

METAR text: FGBT 221500Z 21009KT 9999 SCT010 30/27 Q1009
Conditions at: FGBT (BATA (RIO MUNI) , GQ) observed 1500 UTC 22 January 2019
Temperature: 30.0°C (86°F)
Dewpoint: 27.0°C (81°F) [RH = 84%]
Pressure (altimeter): 29.79 inches Hg (1009.0 mb)
Winds: from the SSW (210 degrees) at 10 MPH (9 knots; 4.6 m/s)
Visibility: 6 or more miles (10+ km)
Ceiling: at least 12,000 feet AGL
Clouds: scattered clouds at 1000 feet AGL
Weather: no significant weather observed at this time

METAR text: FGBT 221400Z 22009KT 190V250 9999 SCT010 FEW020CB 30/26 Q1009
Conditions at: FGBT (BATA (RIO MUNI) , GQ) observed 1400 UTC 22 January 2019
Temperature: 30.0°C (86°F)
Dewpoint: 26.0°C (79°F) [RH = 79%]
Pressure (altimeter): 29.79 inches Hg (1009.0 mb)
Winds: from the SW (220 degrees) at 10 MPH (9 knots; 4.6 m/s)
Visibility: 6 or more miles (10+ km)
Ceiling: at least 12,000 feet AGL
Clouds: scattered clouds at 1000 feet AGL
few clouds at 2000 feet AGL
Weather: no significant weather observed at this time

METAR text: FGBT 221300Z 23009KT 200V260 9999 SCT010 31/26 Q1010
Conditions at: FGBT (BATA (RIO MUNI) , GQ) observed 1300 UTC 22 January 2019
Temperature: 31.0°C (88°F)
Dewpoint: 26.0°C (79°F) [RH = 75%]
Pressure (altimeter): 29.82 inches Hg (1010.0 mb)
Winds: from the SW (230 degrees) at 10 MPH (9 knots; 4.6 m/s)
Visibility: 6 or more miles (10+ km)
Ceiling: at least 12,000 feet AGL
Clouds: scattered clouds at 1000 feet AGL
Weather: no significant weather observed at this time

METAR text: FGBT 221100Z 21006KT 180V250 9999 SCT010 31/26 Q1012
Conditions at: FGBT (BATA (RIO MUNI) , GQ) observed 1100 UTC 22 January 2019
Temperature: 31.0°C (88°F)
Dewpoint: 26.0°C (79°F) [RH = 75%]
Pressure (altimeter): 29.88 inches Hg (1012.0 mb)
Winds: from the SSW (210 degrees) at 7 MPH (6 knots; 3.1 m/s)
Visibility: 6 or more miles (10+ km)
Ceiling: at least 12,000 feet AGL
Clouds: scattered clouds at 1000 feet AGL
Weather: no significant weather observed at this time

METAR text: FGBT 221000Z 24003KT 180V270 9999 SCT010 30/26 Q1012
Conditions at: FGBT (BATA (RIO MUNI) , GQ) observed 1000 UTC 22 January 2019
Temperature: 30.0°C (86°F)
Dewpoint: 26.0°C (79°F) [RH = 79%]
Pressure (altimeter): 29.88 inches Hg (1012.0 mb)
Winds: from the WSW (240 degrees) at 3 MPH (3 knots; 1.5 m/s)
Visibility: 6 or more miles (10+ km)
Ceiling: at least 12,000 feet AGL
Clouds: scattered clouds at 1000 feet AGL
Weather: no significant weather observed at this time

METAR text: FGBT 220900Z 00000KT 9999 FEW010 30/26 Q1013
Conditions at: FGBT (BATA (RIO MUNI) , GQ) observed 0900 UTC 22 January 2019
Temperature: 30.0°C (86°F)
Dewpoint: 26.0°C (79°F) [RH = 79%]
Pressure (altimeter): 29.91 inches Hg (1013.0 mb)
Winds: calm
Visibility: 6 or more miles (10+ km)
Ceiling: at least 12,000 feet AGL
Clouds: few clouds at 1000 feet AGL
Weather: no significant weather observed at this time

METAR text: FGBT 220700Z 00000KT 9999 FEW010 27/26 Q1012
Conditions at: FGBT (BATA (RIO MUNI) , GQ) observed 0700 UTC 22 January 2019
Temperature: 27.0°C (81°F)
Dewpoint: 26.0°C (79°F) [RH = 94%]
Pressure (altimeter): 29.88 inches Hg (1012.0 mb)
Winds: calm
Visibility: 6 or more miles (10+ km)
Ceiling: at least 12,000 feet AGL
Clouds: few clouds at 1000 feet AGL
Weather: no significant weather observed at this time

METAR text: FGBT 220600Z 00000KT 9999 SCT010 ///// Q1011
Conditions at: FGBT (BATA (RIO MUNI) , GQ) observed 0600 UTC 22 January 2019
Temperature: missing
Dewpoint: missing
Pressure (altimeter): 29.85 inches Hg (1011.0 mb)
Winds: calm
Visibility: 6 or more miles (10+ km)
Ceiling: at least 12,000 feet AGL
Clouds: scattered clouds at 1000 feet AGL
Weather: no significant weather observed at this time

METAR text: FGBT 220500Z 00000KT 9999 FEW010 ///// Q1011
Conditions at: FGBT (BATA (RIO MUNI) , GQ) observed 0500 UTC 22 January 2019
Temperature: missing
Dewpoint: missing
Pressure (altimeter): 29.85 inches Hg (1011.0 mb)
Winds: calm
Visibility: 6 or more miles (10+ km)
Ceiling: at least 12,000 feet AGL
Clouds: few clouds at 1000 feet AGL
Weather: no significant weather observed at this time

METAR text: FGBT 220400Z 00000KT 9999 FEW010 26/26 Q1011
Conditions at: FGBT (BATA (RIO MUNI) , GQ) observed 0400 UTC 22 January 2019
Temperature: 26.0°C (79°F)
Dewpoint: 26.0°C (79°F) [RH = 100%]
Pressure (altimeter): 29.85 inches Hg (1011.0 mb)
Winds: calm
Visibility: 6 or more miles (10+ km)
Ceiling: at least 12,000 feet AGL
Clouds: few clouds at 1000 feet AGL
Weather: no significant weather observed at this time

Forecast for: FGBT (BATA (RIO MUNI) , GQ)
Text: TAF FGBT 231100Z 2312/2412 22006KT 9999 SCT010
Forecast period: 1200 UTC 23 January 2019 to 1200 UTC 24 January 2019
Forecast type: FROM: standard forecast or significant change
Winds: from the SW (220 degrees) at 7 MPH (6 knots; 3.1 m/s)
Visibility: 6 or more miles 10+ km)
Ceiling: at least 12,000 feet AGL
Clouds: scattered clouds at 1000 feet AGL
Weather: no significant weather forecast for this period
Text: TEMPO 2312/2320 BKN010 FEW018CB
Forecast period: 1200 to 2000 UTC 23 January 2019
Forecast type: TEMPORARY: The following changes expected for less than half the time period
Visibility: missing
Ceiling: 1000 feet AGL
Clouds: broken clouds at 1000 feet AGL
few clouds at 1800 feet AGL
Weather: no significant weather forecast for this period
Text: TEMPO 2402/2410 TS BKN008 FEW018CB
Forecast period: 0200 to 1000 UTC 24 January 2019
Forecast type: TEMPORARY: The following changes expected for less than half the time period
Visibility: missing
Ceiling: 800 feet AGL
Clouds: broken clouds at 800 feet AGL
few clouds at 1800 feet AGL
Weather: TS  (thunderstorm)